Arickaree, Colorado
Current Conditions -  °F | °C
As of 2:55 PM on Tuesday 25 Nov 2014 (Local Time) from KLIC Reporting Station
Broken Clouds Broken Clouds  
Wind Chill:   Ceiling: 9500
Heat Index:   Visibility: 10mi
Dew Point: -9°   Wind: 20mph
Humidity: 27%   Direction: 300°WNW
Pressure: 29.87"   Gusts: NA
Location:  39.6673°N, 103.47°W
Report Text: KLIC 252155Z AUTO 30017KT 10SM BKN095 09/M09 A2987 RMK AO2 PK WND 29027/2145 SLP131 T00891094
Loading
Personal Weather Stations






























Interactive Weather Map New forecast layout! Learn more

10-Day Weather Forecast

Advertisements
Track Severe Weather on mobile